createdAt,value
2023-04-30T00:00:27.555Z,1014.05
2023-04-30T00:01:27.580Z,1014.07
2023-04-30T00:02:27.579Z,1014.01
2023-04-30T00:03:27.641Z,1014.01
2023-04-30T00:04:27.732Z,1014.02
2023-04-30T00:05:27.485Z,1014.00
2023-04-30T00:06:28.565Z,1014.02
2023-04-30T00:07:27.461Z,1014.04
2023-04-30T00:08:27.488Z,1014.02
2023-04-30T00:09:27.422Z,1014.03
2023-04-30T00:10:27.426Z,1014.03
2023-04-30T00:11:27.397Z,1014.00
2023-04-30T00:12:27.412Z,1014.05
2023-04-30T00:13:27.386Z,1014.05
2023-04-30T00:14:27.386Z,1014.09
2023-04-30T00:15:27.354Z,1014.05
2023-04-30T00:16:27.410Z,1014.08
2023-04-30T00:17:27.368Z,1014.06
2023-04-30T00:18:27.358Z,1014.08
2023-04-30T00:19:27.320Z,1014.11
2023-04-30T00:20:27.303Z,1014.13
2023-04-30T00:21:27.284Z,1014.11
2023-04-30T00:22:27.279Z,1014.05
2023-04-30T00:23:27.276Z,1014.08
2023-04-30T00:24:27.286Z,1014.06
2023-04-30T00:25:27.243Z,1014.10
2023-04-30T00:26:27.297Z,1014.14
2023-04-30T00:27:27.249Z,1014.10
2023-04-30T00:28:27.252Z,1014.10
2023-04-30T00:29:27.234Z,1014.13
2023-04-30T00:30:27.191Z,1014.20
2023-04-30T00:31:27.218Z,1014.20
2023-04-30T00:32:27.211Z,1014.23
2023-04-30T00:33:27.156Z,1014.26
2023-04-30T00:34:27.150Z,1014.24
2023-04-30T00:35:27.141Z,1014.22
2023-04-30T00:36:27.129Z,1014.27
2023-04-30T00:37:27.114Z,1014.25
2023-04-30T00:38:27.090Z,1014.29
2023-04-30T00:39:27.107Z,1014.27
2023-04-30T00:40:27.132Z,1014.30
2023-04-30T00:41:27.102Z,1014.24
2023-04-30T00:42:27.062Z,1014.24
2023-04-30T00:43:27.062Z,1014.24
2023-04-30T00:44:27.069Z,1014.25
2023-04-30T00:45:27.021Z,1014.23
2023-04-30T00:46:27.093Z,1014.26
2023-04-30T00:47:27.048Z,1014.29
2023-04-30T00:48:27.014Z,1014.26
2023-04-30T00:49:26.972Z,1014.31
2023-04-30T00:50:26.966Z,1014.30
2023-04-30T00:51:26.967Z,1014.25
2023-04-30T00:52:26.985Z,1014.29
2023-04-30T00:53:26.958Z,1014.28
2023-04-30T00:54:26.994Z,1014.30
2023-04-30T00:55:26.953Z,1014.33
2023-04-30T00:56:26.905Z,1014.29
2023-04-30T00:57:26.886Z,1014.30
2023-04-30T00:58:26.889Z,1014.32
2023-04-30T00:59:26.878Z,1014.31
2023-04-30T01:00:26.903Z,1014.26
2023-04-30T01:01:26.928Z,1014.29
2023-04-30T01:02:26.957Z,1014.27
2023-04-30T01:03:26.955Z,1014.30
2023-04-30T01:04:26.829Z,1014.25
2023-04-30T01:05:26.810Z,1014.34
2023-04-30T01:06:26.993Z,1014.35
2023-04-30T01:07:26.794Z,1014.35
2023-04-30T01:08:26.770Z,1014.34
2023-04-30T01:09:26.752Z,1014.36
2023-04-30T01:10:26.775Z,1014.34
2023-04-30T01:11:26.739Z,1014.34
2023-04-30T01:12:26.783Z,1014.30
2023-04-30T01:13:26.711Z,1014.31
2023-04-30T01:14:26.701Z,1014.30
2023-04-30T01:15:26.691Z,1014.32
2023-04-30T01:16:26.770Z,1014.27
2023-04-30T01:17:26.694Z,1014.31
2023-04-30T01:18:26.759Z,1014.31
2023-04-30T01:19:26.648Z,1014.28
2023-04-30T01:20:26.632Z,1014.32
2023-04-30T01:21:26.619Z,1014.31
2023-04-30T01:22:26.627Z,1014.29
2023-04-30T01:23:26.631Z,1014.35
2023-04-30T01:24:26.586Z,1014.35
2023-04-30T01:25:26.598Z,1014.37
2023-04-30T01:26:26.574Z,1014.36
2023-04-30T01:27:26.555Z,1014.33
2023-04-30T01:28:26.605Z,1014.33
2023-04-30T01:29:26.531Z,1014.33
2023-04-30T01:30:26.526Z,1014.32
2023-04-30T01:31:26.556Z,1014.35
2023-04-30T01:32:26.613Z,1014.28
2023-04-30T01:33:26.510Z,1014.29
2023-04-30T01:34:26.481Z,1014.28
2023-04-30T01:35:26.478Z,1014.28
2023-04-30T01:36:26.474Z,1014.33
2023-04-30T01:37:26.450Z,1014.33
2023-04-30T01:38:26.434Z,1014.36
2023-04-30T01:39:26.426Z,1014.34
2023-04-30T01:40:26.404Z,1014.39
2023-04-30T01:41:26.413Z,1014.33
2023-04-30T01:42:26.409Z,1014.33
2023-04-30T01:43:26.390Z,1014.31
2023-04-30T01:44:26.419Z,1014.26
2023-04-30T01:45:26.360Z,1014.28
2023-04-30T01:46:26.352Z,1014.27
2023-04-30T01:47:26.389Z,1014.27
2023-04-30T01:48:26.359Z,1014.26
2023-04-30T01:49:26.331Z,1014.23
2023-04-30T01:50:26.338Z,1014.27
2023-04-30T01:51:26.310Z,1014.29
2023-04-30T01:52:26.276Z,1014.26
2023-04-30T01:53:26.291Z,1014.28
2023-04-30T01:54:26.258Z,1014.30
2023-04-30T01:55:26.248Z,1014.25
2023-04-30T01:56:26.249Z,1014.26
2023-04-30T01:57:26.248Z,1014.25
2023-04-30T01:58:26.254Z,1014.19
2023-04-30T01:59:26.282Z,1014.25
2023-04-30T02:00:26.188Z,1014.25
2023-04-30T02:01:26.243Z,1014.22
2023-04-30T02:02:26.278Z,1014.22
2023-04-30T02:03:26.230Z,1014.18
2023-04-30T02:04:26.191Z,1014.21
2023-04-30T02:05:26.145Z,1014.21
2023-04-30T02:06:26.164Z,1014.18
2023-04-30T02:07:26.126Z,1014.16
2023-04-30T02:08:26.122Z,1014.19
2023-04-30T02:09:26.114Z,1014.19
2023-04-30T02:10:26.109Z,1014.23
2023-04-30T02:11:26.084Z,1014.20
2023-04-30T02:12:26.067Z,1014.19
2023-04-30T02:13:26.058Z,1014.19
2023-04-30T02:14:26.041Z,1014.18
2023-04-30T02:15:26.032Z,1014.20
2023-04-30T02:16:26.086Z,1014.23
2023-04-30T02:17:26.030Z,1014.24
2023-04-30T02:18:26.007Z,1014.23
2023-04-30T02:19:25.977Z,1014.24
2023-04-30T02:20:26.000Z,1014.21
2023-04-30T02:21:25.968Z,1014.22
2023-04-30T02:22:25.965Z,1014.28
2023-04-30T02:23:25.949Z,1014.27
2023-04-30T02:24:25.917Z,1014.22
2023-04-30T02:25:25.904Z,1014.26
2023-04-30T02:26:25.889Z,1014.26
2023-04-30T02:27:25.897Z,1014.22
2023-04-30T02:28:25.883Z,1014.22
2023-04-30T02:29:25.857Z,1014.24
2023-04-30T02:30:25.864Z,1014.17
2023-04-30T02:31:25.892Z,1014.20
2023-04-30T02:32:25.881Z,1014.15
2023-04-30T02:33:25.828Z,1014.19
2023-04-30T02:34:25.820Z,1014.22
2023-04-30T02:35:25.798Z,1014.21
2023-04-30T02:36:25.803Z,1014.23
2023-04-30T02:37:25.775Z,1014.22
2023-04-30T02:38:25.754Z,1014.27
2023-04-30T02:39:25.772Z,1014.26
2023-04-30T02:40:25.742Z,1014.32
2023-04-30T02:41:25.719Z,1014.33
2023-04-30T02:42:25.737Z,1014.33
2023-04-30T02:43:25.710Z,1014.34
2023-04-30T02:44:25.704Z,1014.34
2023-04-30T02:45:25.774Z,1014.42
2023-04-30T02:46:25.745Z,1014.37
2023-04-30T02:47:25.666Z,1014.41
2023-04-30T02:48:25.658Z,1014.40
2023-04-30T02:49:25.647Z,1014.43
2023-04-30T02:50:25.631Z,1014.48
2023-04-30T02:51:25.630Z,1014.50
2023-04-30T02:52:25.630Z,1014.50
2023-04-30T02:53:25.603Z,1014.49
2023-04-30T02:54:25.649Z,1014.51
2023-04-30T02:55:25.575Z,1014.48
2023-04-30T02:56:25.573Z,1014.49
2023-04-30T02:57:25.561Z,1014.48
2023-04-30T02:58:25.550Z,1014.43
2023-04-30T02:59:25.559Z,1014.51
2023-04-30T03:00:25.525Z,1014.47
2023-04-30T03:01:25.519Z,1014.45
2023-04-30T03:02:25.563Z,1014.47
2023-04-30T03:03:25.564Z,1014.45
2023-04-30T03:04:25.486Z,1014.43
2023-04-30T03:05:25.514Z,1014.48
2023-04-30T03:06:25.468Z,1014.51
2023-04-30T03:07:25.445Z,1014.51
2023-04-30T03:08:25.452Z,1014.45
2023-04-30T03:09:25.418Z,1014.51
2023-04-30T03:10:25.398Z,1014.51
2023-04-30T03:11:25.392Z,1014.55
2023-04-30T03:12:25.370Z,1014.53
2023-04-30T03:13:25.358Z,1014.54
2023-04-30T03:14:25.370Z,1014.56
2023-04-30T03:15:25.346Z,1014.56
2023-04-30T03:16:25.388Z,1014.57
2023-04-30T03:17:25.366Z,1014.56
2023-04-30T03:18:25.301Z,1014.53
2023-04-30T03:19:25.378Z,1014.55
2023-04-30T03:20:25.287Z,1014.53
2023-04-30T03:21:25.286Z,1014.52
2023-04-30T03:22:25.257Z,1014.51
2023-04-30T03:23:25.272Z,1014.46
2023-04-30T03:24:25.289Z,1014.48
2023-04-30T03:25:25.240Z,1014.45
2023-04-30T03:26:25.231Z,1014.48
2023-04-30T03:27:25.225Z,1014.44
2023-04-30T03:28:25.244Z,1014.43
2023-04-30T03:29:25.185Z,1014.41
2023-04-30T03:30:25.195Z,1014.41
2023-04-30T03:31:25.221Z,1014.47
2023-04-30T03:32:25.203Z,1014.43
2023-04-30T03:33:25.200Z,1014.43
2023-04-30T03:34:25.142Z,1014.42
2023-04-30T03:35:25.134Z,1014.40
2023-04-30T03:36:25.126Z,1014.41
2023-04-30T03:37:25.107Z,1014.39
2023-04-30T03:38:25.081Z,1014.42
2023-04-30T03:39:25.080Z,1014.44
2023-04-30T03:40:25.103Z,1014.41
2023-04-30T03:41:25.065Z,1014.46
2023-04-30T03:42:25.068Z,1014.42
2023-04-30T03:43:25.048Z,1014.42
2023-04-30T03:44:25.055Z,1014.37
2023-04-30T03:45:25.087Z,1014.41
2023-04-30T03:46:25.056Z,1014.36
2023-04-30T03:47:24.994Z,1014.38
2023-04-30T03:48:24.974Z,1014.39
2023-04-30T03:49:25.006Z,1014.35
2023-04-30T03:50:24.999Z,1014.34
2023-04-30T03:51:24.965Z,1014.37
2023-04-30T03:52:24.963Z,1014.35
2023-04-30T03:53:24.940Z,1014.31
2023-04-30T03:54:24.926Z,1014.32
2023-04-30T03:55:24.914Z,1014.32
2023-04-30T03:56:24.929Z,1014.31
2023-04-30T03:57:24.892Z,1014.31
2023-04-30T03:58:24.884Z,1014.30
2023-04-30T03:59:24.865Z,1014.33
2023-04-30T04:00:24.859Z,1014.30
2023-04-30T04:01:24.843Z,1014.34
2023-04-30T04:02:24.948Z,1014.35
2023-04-30T04:03:24.855Z,1014.29
2023-04-30T04:04:24.868Z,1014.33
2023-04-30T04:05:24.797Z,1014.33
2023-04-30T04:06:24.803Z,1014.34
2023-04-30T04:07:24.782Z,1014.35
2023-04-30T04:08:24.773Z,1014.36
2023-04-30T04:09:24.757Z,1014.30
2023-04-30T04:10:24.747Z,1014.28
2023-04-30T04:11:24.724Z,1014.31
2023-04-30T04:12:24.751Z,1014.32
2023-04-30T04:13:24.701Z,1014.32
2023-04-30T04:14:24.777Z,1014.38
2023-04-30T04:15:24.710Z,1014.36
2023-04-30T04:16:24.734Z,1014.37
2023-04-30T04:17:24.676Z,1014.38
2023-04-30T04:18:24.667Z,1014.40
2023-04-30T04:19:24.642Z,1014.41
2023-04-30T04:20:24.638Z,1014.37
2023-04-30T04:21:24.623Z,1014.36
2023-04-30T04:22:24.605Z,1014.36
2023-04-30T04:23:24.596Z,1014.46
2023-04-30T04:24:24.585Z,1014.37
2023-04-30T04:25:24.574Z,1014.42
2023-04-30T04:26:24.575Z,1014.40
2023-04-30T04:27:24.540Z,1014.42
2023-04-30T04:28:24.563Z,1014.45
2023-04-30T04:29:24.531Z,1014.43
2023-04-30T04:30:24.512Z,1014.42
2023-04-30T04:31:24.529Z,1014.43
2023-04-30T04:32:24.531Z,1014.45
2023-04-30T04:33:24.479Z,1014.46
2023-04-30T04:34:24.457Z,1014.44
2023-04-30T04:35:24.512Z,1014.47
2023-04-30T04:36:24.496Z,1014.47
2023-04-30T04:37:24.434Z,1014.49
2023-04-30T04:38:24.443Z,1014.49
2023-04-30T04:39:24.446Z,1014.51
2023-04-30T04:40:24.435Z,1014.48
2023-04-30T04:41:24.424Z,1014.54
2023-04-30T04:42:24.369Z,1014.58
2023-04-30T04:43:24.379Z,1014.56
2023-04-30T04:44:24.412Z,1014.55
2023-04-30T04:45:24.368Z,1014.59
2023-04-30T04:46:24.373Z,1014.54
2023-04-30T04:47:24.360Z,1014.57
2023-04-30T04:48:24.302Z,1014.60
2023-04-30T04:49:24.300Z,1014.55
2023-04-30T04:50:24.290Z,1014.59
2023-04-30T04:51:24.283Z,1014.56
2023-04-30T04:52:24.288Z,1014.58
2023-04-30T04:53:24.298Z,1014.57
2023-04-30T04:54:24.246Z,1014.59
2023-04-30T04:55:24.222Z,1014.57
2023-04-30T04:56:24.242Z,1014.56
2023-04-30T04:57:24.209Z,1014.62
2023-04-30T04:58:24.219Z,1014.63
2023-04-30T04:59:24.186Z,1014.64
2023-04-30T05:00:24.190Z,1014.64
2023-04-30T05:01:24.216Z,1014.65
2023-04-30T05:02:24.214Z,1014.70
2023-04-30T05:03:24.219Z,1014.66
2023-04-30T05:04:24.181Z,1014.75
2023-04-30T05:05:24.132Z,1014.71
2023-04-30T05:06:24.127Z,1014.73
2023-04-30T05:07:24.094Z,1014.73
2023-04-30T05:08:24.085Z,1014.70
2023-04-30T05:09:24.112Z,1014.73
2023-04-30T05:10:24.087Z,1014.71
2023-04-30T05:11:24.057Z,1014.71
2023-04-30T05:12:24.045Z,1014.73
2023-04-30T05:13:24.032Z,1014.74
2023-04-30T05:14:24.017Z,1014.74
2023-04-30T05:15:24.012Z,1014.75
2023-04-30T05:16:24.171Z,1014.75
2023-04-30T05:17:24.029Z,1014.75
2023-04-30T05:18:24.048Z,1014.80
2023-04-30T05:19:23.958Z,1014.80
2023-04-30T05:20:23.974Z,1014.77
2023-04-30T05:21:23.962Z,1014.82
2023-04-30T05:22:23.961Z,1014.83
2023-04-30T05:23:24.010Z,1014.82
2023-04-30T05:24:32.982Z,1014.79
2023-04-30T05:25:23.901Z,1014.89
2023-04-30T05:26:23.898Z,1014.87
2023-04-30T05:27:23.884Z,1014.92
2023-04-30T05:28:23.846Z,1014.91
2023-04-30T05:29:23.860Z,1014.90
2023-04-30T05:30:23.841Z,1014.93
2023-04-30T05:31:23.888Z,1014.92
2023-04-30T05:32:23.910Z,1014.88
2023-04-30T05:33:23.811Z,1014.96
2023-04-30T05:34:23.807Z,1014.89
2023-04-30T05:35:23.781Z,1014.92
2023-04-30T05:36:23.794Z,1014.95
2023-04-30T05:37:23.752Z,1014.99
2023-04-30T05:38:23.750Z,1014.96
2023-04-30T05:39:23.744Z,1015.00
2023-04-30T05:40:23.726Z,1015.02
2023-04-30T05:41:23.718Z,1015.03
2023-04-30T05:42:23.713Z,1015.01
2023-04-30T05:43:23.718Z,1015.04
2023-04-30T05:44:23.713Z,1015.05
2023-04-30T05:45:23.658Z,1015.04
2023-04-30T05:46:23.680Z,1015.09
2023-04-30T05:47:23.644Z,1015.07
2023-04-30T05:48:23.672Z,1015.10
2023-04-30T05:49:23.632Z,1015.10
2023-04-30T05:50:23.611Z,1015.10
2023-04-30T05:51:23.594Z,1015.07
2023-04-30T05:52:23.584Z,1015.08
2023-04-30T05:53:23.578Z,1015.03
2023-04-30T05:54:23.569Z,1015.02
2023-04-30T05:55:23.563Z,1015.01
2023-04-30T05:56:23.542Z,1015.04
2023-04-30T05:57:23.544Z,1015.06
2023-04-30T05:58:23.543Z,1015.04
2023-04-30T05:59:23.524Z,1015.03
2023-04-30T06:00:23.529Z,1015.09
2023-04-30T06:01:23.509Z,1015.05
2023-04-30T06:02:23.599Z,1015.06
2023-04-30T06:03:23.499Z,1015.09
2023-04-30T06:04:23.493Z,1015.08
2023-04-30T06:05:23.603Z,1015.03
2023-04-30T06:06:23.450Z,1015.07
2023-04-30T06:07:23.452Z,1015.08
2023-04-30T06:08:23.430Z,1015.09
2023-04-30T06:09:23.419Z,1015.06
2023-04-30T06:10:23.405Z,1015.01
2023-04-30T06:11:23.372Z,1015.07
2023-04-30T06:12:23.387Z,1015.02
2023-04-30T06:13:23.371Z,1015.02
2023-04-30T06:14:23.347Z,1015.01
2023-04-30T06:15:23.346Z,1015.01
2023-04-30T06:16:23.364Z,1015.05
2023-04-30T06:17:23.386Z,1015.03
2023-04-30T06:18:23.329Z,1015.01
2023-04-30T06:19:23.302Z,1015.00
2023-04-30T06:20:23.320Z,1014.99
2023-04-30T06:21:23.286Z,1014.97
2023-04-30T06:22:23.268Z,1014.98
2023-04-30T06:23:23.272Z,1014.97
2023-04-30T06:24:23.247Z,1014.93
2023-04-30T06:25:23.248Z,1014.95
2023-04-30T06:26:23.215Z,1014.97
2023-04-30T06:27:23.214Z,1014.97
2023-04-30T06:28:23.192Z,1015.00
2023-04-30T06:29:23.209Z,1015.04
2023-04-30T06:30:23.171Z,1015.01
2023-04-30T06:31:23.245Z,1015.03
2023-04-30T06:32:23.161Z,1015.00
2023-04-30T06:33:23.168Z,1015.03
2023-04-30T06:34:23.140Z,1014.97
2023-04-30T06:35:23.124Z,1015.01
2023-04-30T06:36:23.134Z,1014.91
2023-04-30T06:37:23.109Z,1014.93
2023-04-30T06:38:23.091Z,1014.95
2023-04-30T06:39:23.090Z,1014.91
2023-04-30T06:40:23.058Z,1014.95
2023-04-30T06:41:23.085Z,1014.93
2023-04-30T06:42:23.048Z,1014.89
2023-04-30T06:43:23.035Z,1014.92
2023-04-30T06:44:23.009Z,1014.94
2023-04-30T06:45:23.014Z,1014.94
2023-04-30T06:46:23.096Z,1014.94
2023-04-30T06:47:23.085Z,1014.98
2023-04-30T06:48:22.982Z,1014.95
2023-04-30T06:49:22.975Z,1014.94
2023-04-30T06:50:22.952Z,1014.96
2023-04-30T06:51:22.952Z,1014.97
2023-04-30T06:52:22.958Z,1014.99
2023-04-30T06:53:22.909Z,1014.98
2023-04-30T06:54:22.910Z,1014.98
2023-04-30T06:55:22.887Z,1015.00
2023-04-30T06:56:22.878Z,1015.00
2023-04-30T06:57:22.951Z,1015.01
2023-04-30T06:58:22.880Z,1014.99
2023-04-30T06:59:22.845Z,1014.97
2023-04-30T07:00:22.851Z,1014.97
2023-04-30T07:01:22.861Z,1014.97
2023-04-30T07:02:22.843Z,1014.94
2023-04-30T07:03:22.881Z,1014.93
2023-04-30T07:04:22.790Z,1014.93
2023-04-30T07:05:22.779Z,1014.91
2023-04-30T07:06:22.866Z,1014.88
2023-04-30T07:07:22.778Z,1014.90
2023-04-30T07:08:22.781Z,1014.88
2023-04-30T07:09:22.740Z,1014.90
2023-04-30T07:10:22.757Z,1014.89
2023-04-30T07:11:22.723Z,1014.91
2023-04-30T07:12:22.757Z,1014.86
2023-04-30T07:13:22.699Z,1014.93
2023-04-30T07:14:22.692Z,1014.88
2023-04-30T07:15:22.718Z,1014.90
2023-04-30T07:16:22.698Z,1014.84
2023-04-30T07:17:22.712Z,1014.82
2023-04-30T07:18:22.642Z,1014.84
2023-04-30T07:19:22.631Z,1014.82
2023-04-30T07:20:22.626Z,1014.85
2023-04-30T07:21:22.630Z,1014.86
2023-04-30T07:22:22.596Z,1014.83
2023-04-30T07:23:22.586Z,1014.84
2023-04-30T07:24:22.648Z,1014.84
2023-04-30T07:25:22.563Z,1014.84
2023-04-30T07:26:22.560Z,1014.78
2023-04-30T07:27:22.546Z,1014.80
2023-04-30T07:28:22.529Z,1014.78
2023-04-30T07:29:22.510Z,1014.76
2023-04-30T07:30:24.386Z,1014.76
2023-04-30T07:31:22.515Z,1014.78
2023-04-30T07:32:22.478Z,1014.83
2023-04-30T07:33:22.479Z,1014.75
2023-04-30T07:34:22.463Z,1014.78
2023-04-30T07:35:22.444Z,1014.85
2023-04-30T07:36:22.495Z,1014.87
2023-04-30T07:37:22.408Z,1014.87
2023-04-30T07:38:22.412Z,1014.84
2023-04-30T07:39:22.410Z,1014.83
2023-04-30T07:40:34.900Z,1014.82
2023-04-30T07:41:23.390Z,1014.83
2023-04-30T07:42:22.365Z,1014.80
2023-04-30T07:43:22.369Z,1014.81
2023-04-30T07:44:22.343Z,1014.76
2023-04-30T07:45:22.323Z,1014.74
2023-04-30T07:46:22.347Z,1014.80
2023-04-30T07:47:22.334Z,1014.74
2023-04-30T07:48:22.301Z,1014.78
2023-04-30T07:49:22.292Z,1014.76
2023-04-30T07:50:22.299Z,1014.77
2023-04-30T07:51:22.277Z,1014.76
2023-04-30T07:52:22.281Z,1014.74
2023-04-30T07:53:22.227Z,1014.79
2023-04-30T07:54:22.233Z,1014.75
2023-04-30T07:55:22.207Z,1014.78
2023-04-30T07:56:22.227Z,1014.73
2023-04-30T07:57:22.259Z,1014.76
2023-04-30T07:58:22.186Z,1014.74
2023-04-30T07:59:22.177Z,1014.79
2023-04-30T08:00:22.241Z,1014.78
2023-04-30T08:01:22.143Z,1014.77
2023-04-30T08:02:22.208Z,1014.73
2023-04-30T08:03:22.280Z,1014.73
2023-04-30T08:04:22.180Z,1014.76
2023-04-30T08:05:22.113Z,1014.74
2023-04-30T08:06:22.153Z,1014.76
2023-04-30T08:07:22.105Z,1014.74
2023-04-30T08:08:22.068Z,1014.71
2023-04-30T08:09:22.064Z,1014.76
2023-04-30T08:10:22.093Z,1014.78
2023-04-30T08:11:22.037Z,1014.75
2023-04-30T08:12:22.044Z,1014.79
2023-04-30T08:13:22.019Z,1014.79
2023-04-30T08:14:22.018Z,1014.77
2023-04-30T08:15:22.017Z,1014.75
2023-04-30T08:16:22.014Z,1014.76
2023-04-30T08:17:22.008Z,1014.80
2023-04-30T08:18:21.968Z,1014.69
2023-04-30T08:19:21.945Z,1014.71
2023-04-30T08:20:21.937Z,1014.69
2023-04-30T08:21:21.945Z,1014.69
2023-04-30T08:22:21.915Z,1014.69
2023-04-30T08:23:21.912Z,1014.67
2023-04-30T08:24:21.893Z,1014.66
2023-04-30T08:25:21.880Z,1014.67
2023-04-30T08:26:21.910Z,1014.66
2023-04-30T08:27:21.881Z,1014.64
2023-04-30T08:28:21.887Z,1014.64
2023-04-30T08:29:21.851Z,1014.64
2023-04-30T08:30:21.843Z,1014.63
2023-04-30T08:31:21.869Z,1014.64
2023-04-30T08:32:21.955Z,1014.64
2023-04-30T08:33:21.840Z,1014.63
2023-04-30T08:34:21.790Z,1014.60
2023-04-30T08:35:21.783Z,1014.58
2023-04-30T08:36:21.776Z,1014.60
2023-04-30T08:37:21.766Z,1014.60
2023-04-30T08:38:21.746Z,1014.60
2023-04-30T08:39:21.722Z,1014.61
2023-04-30T08:40:23.557Z,1014.63
2023-04-30T08:41:21.721Z,1014.60
2023-04-30T08:42:21.692Z,1014.60
2023-04-30T08:43:21.676Z,1014.59
2023-04-30T08:44:21.697Z,1014.59
2023-04-30T08:45:21.681Z,1014.59
2023-04-30T08:46:21.701Z,1014.59
2023-04-30T08:47:21.773Z,1014.53
2023-04-30T08:48:21.639Z,1014.58
2023-04-30T08:49:22.816Z,1014.56
2023-04-30T08:50:21.606Z,1014.55
2023-04-30T08:51:21.605Z,1014.47
2023-04-30T08:52:21.603Z,1014.49
2023-04-30T08:53:21.623Z,1014.49
2023-04-30T08:54:21.555Z,1014.46
2023-04-30T08:55:21.539Z,1014.46
2023-04-30T08:56:23.131Z,1014.46
2023-04-30T08:57:21.517Z,1014.42
2023-04-30T08:58:21.534Z,1014.44
2023-04-30T08:59:21.521Z,1014.42
2023-04-30T09:00:21.516Z,1014.41
2023-04-30T09:01:21.586Z,1014.45
2023-04-30T09:02:21.640Z,1014.45
2023-04-30T09:03:21.540Z,1014.47
2023-04-30T09:04:21.450Z,1014.44
2023-04-30T09:05:21.456Z,1014.42
2023-04-30T09:06:21.457Z,1014.35
2023-04-30T09:07:21.402Z,1014.37
2023-04-30T09:08:21.395Z,1014.33
2023-04-30T09:09:21.395Z,1014.33
2023-04-30T09:10:21.388Z,1014.37
2023-04-30T09:11:21.364Z,1014.34
2023-04-30T09:12:21.347Z,1014.33
2023-04-30T09:13:21.353Z,1014.36
2023-04-30T09:14:21.325Z,1014.28
2023-04-30T09:15:21.318Z,1014.28
2023-04-30T09:16:21.481Z,1014.23
2023-04-30T09:17:21.305Z,1014.26
2023-04-30T09:18:21.289Z,1014.24
2023-04-30T09:19:21.263Z,1014.21
2023-04-30T09:20:21.254Z,1014.23
2023-04-30T09:21:21.251Z,1014.19
2023-04-30T09:22:21.228Z,1014.15
2023-04-30T09:23:21.225Z,1014.15
2023-04-30T09:24:21.220Z,1014.18
2023-04-30T09:25:21.241Z,1014.16
2023-04-30T09:26:21.186Z,1014.11
2023-04-30T09:27:21.198Z,1014.11
2023-04-30T09:28:21.180Z,1014.16
2023-04-30T09:29:21.176Z,1014.04
2023-04-30T09:30:21.152Z,1014.09
2023-04-30T09:31:21.153Z,1014.09
2023-04-30T09:32:21.318Z,1014.04
2023-04-30T09:33:21.111Z,1014.00
2023-04-30T09:34:21.094Z,1013.99
2023-04-30T09:35:21.098Z,1013.99
2023-04-30T09:36:21.103Z,1014.02
2023-04-30T09:37:21.059Z,1014.00
2023-04-30T09:38:21.047Z,1014.01
2023-04-30T09:39:21.048Z,1013.97
2023-04-30T09:40:21.047Z,1013.99
2023-04-30T09:41:21.023Z,1013.94
2023-04-30T09:42:21.022Z,1013.95
2023-04-30T09:43:20.999Z,1013.95
2023-04-30T09:44:20.991Z,1013.90
2023-04-30T09:45:20.983Z,1013.90
2023-04-30T09:46:21.003Z,1013.83
2023-04-30T09:47:21.082Z,1013.85
2023-04-30T09:48:21.033Z,1013.87
2023-04-30T09:49:20.960Z,1013.83
2023-04-30T09:50:20.929Z,1013.85
2023-04-30T09:51:20.917Z,1013.82
2023-04-30T09:52:20.887Z,1013.85
2023-04-30T09:53:20.904Z,1013.79
2023-04-30T09:54:20.878Z,1013.83
2023-04-30T09:55:20.898Z,1013.83
2023-04-30T09:56:20.845Z,1013.80
2023-04-30T09:57:20.854Z,1013.74
2023-04-30T09:58:20.837Z,1013.79
2023-04-30T09:59:20.813Z,1013.70
2023-04-30T10:00:20.802Z,1013.74
2023-04-30T10:01:20.929Z,1013.73
2023-04-30T10:02:20.776Z,1013.79
2023-04-30T10:03:20.768Z,1013.73
2023-04-30T10:04:20.926Z,1013.71
2023-04-30T10:05:20.740Z,1013.72
2023-04-30T10:06:20.757Z,1013.69
2023-04-30T10:07:22.150Z,1013.68
2023-04-30T10:08:20.729Z,1013.67
2023-04-30T10:09:20.706Z,1013.67
2023-04-30T10:10:20.699Z,1013.58
2023-04-30T10:11:20.673Z,1013.61
2023-04-30T10:12:20.683Z,1013.61
2023-04-30T10:13:20.682Z,1013.61
2023-04-30T10:14:20.647Z,1013.58
2023-04-30T10:15:20.631Z,1013.53
2023-04-30T10:16:20.648Z,1013.52
2023-04-30T10:17:20.754Z,1013.49
2023-04-30T10:18:20.590Z,1013.46
2023-04-30T10:19:20.594Z,1013.51
2023-04-30T10:20:20.721Z,1013.47
2023-04-30T10:21:23.504Z,1013.52
2023-04-30T10:22:20.559Z,1013.45
2023-04-30T10:23:20.545Z,1013.42
2023-04-30T10:24:20.550Z,1013.40
2023-04-30T10:25:20.528Z,1013.39
2023-04-30T10:26:20.523Z,1013.48
2023-04-30T10:27:20.504Z,1013.45
2023-04-30T10:28:20.489Z,1013.46
2023-04-30T10:29:20.472Z,1013.40
2023-04-30T10:30:20.451Z,1013.48
2023-04-30T10:31:20.455Z,1013.47
2023-04-30T10:32:20.557Z,1013.39
2023-04-30T10:33:20.487Z,1013.44
2023-04-30T10:34:20.414Z,1013.37
2023-04-30T10:35:20.412Z,1013.30
2023-04-30T10:36:20.423Z,1013.38
2023-04-30T10:37:20.379Z,1013.41
2023-04-30T10:38:20.383Z,1013.38
2023-04-30T10:39:20.357Z,1013.41
2023-04-30T10:40:20.375Z,1013.37
2023-04-30T10:41:20.351Z,1013.37
2023-04-30T10:42:20.354Z,1013.38
2023-04-30T10:43:20.305Z,1013.35
2023-04-30T10:44:20.299Z,1013.40
2023-04-30T10:45:20.280Z,1013.37
2023-04-30T10:46:20.309Z,1013.32
2023-04-30T10:47:20.260Z,1013.34
2023-04-30T10:48:20.259Z,1013.29
2023-04-30T10:49:20.254Z,1013.29
2023-04-30T10:50:20.226Z,1013.27
2023-04-30T10:51:20.227Z,1013.23
2023-04-30T10:52:20.244Z,1013.17
2023-04-30T10:53:20.201Z,1013.15
2023-04-30T10:54:20.184Z,1013.16
2023-04-30T10:55:20.191Z,1013.18
2023-04-30T10:56:20.165Z,1013.14
2023-04-30T10:57:20.202Z,1013.09
2023-04-30T10:58:20.163Z,1013.10
2023-04-30T10:59:20.128Z,1013.03
2023-04-30T11:00:20.115Z,1013.07
2023-04-30T11:01:20.126Z,1013.08
2023-04-30T11:02:20.123Z,1013.00
2023-04-30T11:03:20.106Z,1013.03
2023-04-30T11:04:20.111Z,1013.05
2023-04-30T11:05:20.107Z,1013.04
2023-04-30T11:06:20.349Z,1013.00
2023-04-30T11:07:20.047Z,1013.08
2023-04-30T11:08:20.069Z,1013.03
2023-04-30T11:09:20.030Z,1013.02
2023-04-30T11:10:20.022Z,1012.92
2023-04-30T11:11:20.019Z,1012.94
2023-04-30T11:12:19.995Z,1012.94
2023-04-30T11:13:19.970Z,1012.89
2023-04-30T11:14:19.958Z,1012.88
2023-04-30T11:15:19.973Z,1012.87
2023-04-30T11:16:20.034Z,1012.86
2023-04-30T11:17:20.010Z,1012.86
2023-04-30T11:18:19.929Z,1012.85
2023-04-30T11:19:19.913Z,1012.81
2023-04-30T11:20:19.890Z,1012.83
2023-04-30T11:21:19.877Z,1012.85
2023-04-30T11:22:19.882Z,1012.80
2023-04-30T11:23:28.581Z,1012.80
2023-04-30T11:24:20.876Z,1012.83
2023-04-30T11:25:19.874Z,1012.79
2023-04-30T11:26:19.831Z,1012.82
2023-04-30T11:27:19.817Z,1012.83
2023-04-30T11:28:19.811Z,1012.82
2023-04-30T11:29:19.842Z,1012.78
2023-04-30T11:30:19.797Z,1012.80
2023-04-30T11:31:19.848Z,1012.79
2023-04-30T11:32:19.785Z,1012.82
2023-04-30T11:33:19.752Z,1012.77
2023-04-30T11:34:19.772Z,1012.80
2023-04-30T11:35:19.814Z,1012.79
2023-04-30T11:36:19.711Z,1012.74
2023-04-30T11:37:19.716Z,1012.76
2023-04-30T11:38:19.709Z,1012.69
2023-04-30T11:39:19.693Z,1012.61
2023-04-30T11:40:19.714Z,1012.66
2023-04-30T11:41:19.673Z,1012.61
2023-04-30T11:42:19.662Z,1012.67
2023-04-30T11:43:19.666Z,1012.56
2023-04-30T11:44:19.623Z,1012.57
2023-04-30T11:45:19.624Z,1012.55
2023-04-30T11:46:19.636Z,1012.58
2023-04-30T11:47:19.591Z,1012.54
2023-04-30T11:48:19.580Z,1012.54
2023-04-30T11:49:19.582Z,1012.49
2023-04-30T11:50:19.595Z,1012.53
2023-04-30T11:51:19.555Z,1012.58
2023-04-30T11:52:19.537Z,1012.55
2023-04-30T11:53:19.543Z,1012.45
2023-04-30T11:54:19.538Z,1012.47
2023-04-30T11:55:19.521Z,1012.43
2023-04-30T11:56:19.519Z,1012.42
2023-04-30T11:57:19.482Z,1012.48
2023-04-30T11:58:19.471Z,1012.46
2023-04-30T11:59:19.475Z,1012.50
2023-04-30T12:00:19.459Z,1012.45
2023-04-30T12:01:19.453Z,1012.45
2023-04-30T12:02:19.510Z,1012.42
2023-04-30T12:03:19.534Z,1012.43
2023-04-30T12:04:19.472Z,1012.38
2023-04-30T12:05:19.391Z,1012.40